sensor_id;sensor_type;location;lat;lon;timestamp;temperature;humidity
63047;DHT22;62025;39.238;9.126;2022-08-19T00:01:14;27.70;60.30
63047;DHT22;62025;39.238;9.126;2022-08-19T00:03:40;27.80;60.00
63047;DHT22;62025;39.238;9.126;2022-08-19T00:06:06;27.90;60.00
63047;DHT22;62025;39.238;9.126;2022-08-19T00:08:32;27.90;59.70
63047;DHT22;62025;39.238;9.126;2022-08-19T00:10:58;27.90;59.50
63047;DHT22;62025;39.238;9.126;2022-08-19T00:13:24;27.80;59.60
63047;DHT22;62025;39.238;9.126;2022-08-19T00:15:50;27.80;59.70
63047;DHT22;62025;39.238;9.126;2022-08-19T00:18:17;27.80;59.60
63047;DHT22;62025;39.238;9.126;2022-08-19T00:20:43;27.80;59.40
63047;DHT22;62025;39.238;9.126;2022-08-19T00:23:09;27.80;59.40
63047;DHT22;62025;39.238;9.126;2022-08-19T00:25:36;27.80;59.40
63047;DHT22;62025;39.238;9.126;2022-08-19T00:28:03;27.60;59.80
63047;DHT22;62025;39.238;9.126;2022-08-19T00:30:29;27.60;59.60
63047;DHT22;62025;39.238;9.126;2022-08-19T00:32:56;27.60;59.60
63047;DHT22;62025;39.238;9.126;2022-08-19T00:35:23;27.70;59.20
63047;DHT22;62025;39.238;9.126;2022-08-19T00:37:50;27.60;59.60
63047;DHT22;62025;39.238;9.126;2022-08-19T00:40:17;27.50;59.50
63047;DHT22;62025;39.238;9.126;2022-08-19T00:42:45;27.40;59.80
63047;DHT22;62025;39.238;9.126;2022-08-19T00:45:15;27.40;59.80
63047;DHT22;62025;39.238;9.126;2022-08-19T00:47:44;27.40;59.70
63047;DHT22;62025;39.238;9.126;2022-08-19T00:50:13;27.40;59.80
63047;DHT22;62025;39.238;9.126;2022-08-19T00:52:44;27.40;59.50
63047;DHT22;62025;39.238;9.126;2022-08-19T00:55:24;27.40;59.40
63047;DHT22;62025;39.238;9.126;2022-08-19T00:58:15;27.50;59.20
63047;DHT22;62025;39.238;9.126;2022-08-19T01:00:45;27.50;59.20
63047;DHT22;62025;39.238;9.126;2022-08-19T01:03:15;27.40;59.10
63047;DHT22;62025;39.238;9.126;2022-08-19T01:05:44;27.40;59.10
63047;DHT22;62025;39.238;9.126;2022-08-19T01:08:11;27.60;58.80
63047;DHT22;62025;39.238;9.126;2022-08-19T01:10:50;27.70;58.50
63047;DHT22;62025;39.238;9.126;2022-08-19T01:13:21;27.70;58.50
63047;DHT22;62025;39.238;9.126;2022-08-19T01:15:54;27.80;58.40
63047;DHT22;62025;39.238;9.126;2022-08-19T01:18:24;27.80;58.30
63047;DHT22;62025;39.238;9.126;2022-08-19T01:20:52;27.70;58.40
63047;DHT22;62025;39.238;9.126;2022-08-19T01:23:20;27.70;58.60
63047;DHT22;62025;39.238;9.126;2022-08-19T01:25:49;27.70;58.60
63047;DHT22;62025;39.238;9.126;2022-08-19T01:28:23;27.80;58.30
63047;DHT22;62025;39.238;9.126;2022-08-19T01:30:52;27.70;58.50
63047;DHT22;62025;39.238;9.126;2022-08-19T01:33:19;27.50;59.00
63047;DHT22;62025;39.238;9.126;2022-08-19T01:35:46;27.40;58.90
63047;DHT22;62025;39.238;9.126;2022-08-19T01:38:25;27.40;58.90
63047;DHT22;62025;39.238;9.126;2022-08-19T01:40:52;27.40;59.10
63047;DHT22;62025;39.238;9.126;2022-08-19T01:43:19;27.40;58.80
63047;DHT22;62025;39.238;9.126;2022-08-19T01:45:46;27.50;58.40
63047;DHT22;62025;39.238;9.126;2022-08-19T01:48:13;27.60;58.30
63047;DHT22;62025;39.238;9.126;2022-08-19T01:50:40;27.60;58.10
63047;DHT22;62025;39.238;9.126;2022-08-19T01:53:10;27.60;57.80
63047;DHT22;62025;39.238;9.126;2022-08-19T01:55:40;27.60;57.80
63047;DHT22;62025;39.238;9.126;2022-08-19T01:58:13;27.60;57.80
63047;DHT22;62025;39.238;9.126;2022-08-19T02:00:42;27.60;57.60
63047;DHT22;62025;39.238;9.126;2022-08-19T02:03:08;27.60;57.60
63047;DHT22;62025;39.238;9.126;2022-08-19T02:05:36;27.60;57.60
63047;DHT22;62025;39.238;9.126;2022-08-19T02:08:03;27.50;57.80
63047;DHT22;62025;39.238;9.126;2022-08-19T02:10:30;27.50;57.90
63047;DHT22;62025;39.238;9.126;2022-08-19T02:12:57;27.50;57.80
63047;DHT22;62025;39.238;9.126;2022-08-19T02:15:24;27.50;57.70
63047;DHT22;62025;39.238;9.126;2022-08-19T02:17:51;27.50;57.70
63047;DHT22;62025;39.238;9.126;2022-08-19T02:20:18;27.50;57.70
63047;DHT22;62025;39.238;9.126;2022-08-19T02:22:44;27.50;57.60
63047;DHT22;62025;39.238;9.126;2022-08-19T02:25:12;27.60;57.40
63047;DHT22;62025;39.238;9.126;2022-08-19T02:27:40;27.60;57.30
63047;DHT22;62025;39.238;9.126;2022-08-19T02:30:08;27.50;57.30
63047;DHT22;62025;39.238;9.126;2022-08-19T02:32:39;27.40;57.60
63047;DHT22;62025;39.238;9.126;2022-08-19T02:35:05;27.40;57.60
63047;DHT22;62025;39.238;9.126;2022-08-19T02:37:32;27.40;57.90
63047;DHT22;62025;39.238;9.126;2022-08-19T02:40:17;27.40;57.60
63047;DHT22;62025;39.238;9.126;2022-08-19T02:42:43;27.40;57.70
63047;DHT22;62025;39.238;9.126;2022-08-19T02:45:12;27.40;57.40
63047;DHT22;62025;39.238;9.126;2022-08-19T02:47:39;27.40;57.60
63047;DHT22;62025;39.238;9.126;2022-08-19T02:50:06;27.40;57.60
63047;DHT22;62025;39.238;9.126;2022-08-19T02:52:33;27.40;57.80
63047;DHT22;62025;39.238;9.126;2022-08-19T02:55:00;27.40;57.90
63047;DHT22;62025;39.238;9.126;2022-08-19T02:57:27;27.40;57.60
63047;DHT22;62025;39.238;9.126;2022-08-19T02:59:53;27.40;57.90
63047;DHT22;62025;39.238;9.126;2022-08-19T03:02:20;27.40;57.70
63047;DHT22;62025;39.238;9.126;2022-08-19T03:04:47;27.40;57.70
63047;DHT22;62025;39.238;9.126;2022-08-19T03:07:14;27.40;57.50
63047;DHT22;62025;39.238;9.126;2022-08-19T03:09:41;27.30;57.80
63047;DHT22;62025;39.238;9.126;2022-08-19T03:12:08;27.30;57.60
63047;DHT22;62025;39.238;9.126;2022-08-19T03:14:35;27.30;57.40
63047;DHT22;62025;39.238;9.126;2022-08-19T03:17:03;27.30;57.30
63047;DHT22;62025;39.238;9.126;2022-08-19T03:19:30;27.30;57.50
63047;DHT22;62025;39.238;9.126;2022-08-19T03:21:57;27.20;57.40
63047;DHT22;62025;39.238;9.126;2022-08-19T03:24:24;27.30;57.20
63047;DHT22;62025;39.238;9.126;2022-08-19T03:26:53;27.10;57.40
63047;DHT22;62025;39.238;9.126;2022-08-19T03:29:23;27.10;57.30
63047;DHT22;62025;39.238;9.126;2022-08-19T03:31:50;27.10;57.30
63047;DHT22;62025;39.238;9.126;2022-08-19T03:34:25;27.10;57.20
63047;DHT22;62025;39.238;9.126;2022-08-19T03:36:58;27.20;57.00
63047;DHT22;62025;39.238;9.126;2022-08-19T03:39:29;27.20;56.80
63047;DHT22;62025;39.238;9.126;2022-08-19T03:41:56;27.30;56.50
63047;DHT22;62025;39.238;9.126;2022-08-19T03:44:24;27.20;56.40
63047;DHT22;62025;39.238;9.126;2022-08-19T03:46:54;27.20;56.40
63047;DHT22;62025;39.238;9.126;2022-08-19T03:49:24;27.10;56.60
63047;DHT22;62025;39.238;9.126;2022-08-19T03:51:53;27.20;56.30
63047;DHT22;62025;39.238;9.126;2022-08-19T03:54:21;27.20;56.10
63047;DHT22;62025;39.238;9.126;2022-08-19T03:56:49;27.20;56.00
63047;DHT22;62025;39.238;9.126;2022-08-19T03:59:28;27.10;56.20
63047;DHT22;62025;39.238;9.126;2022-08-19T04:01:58;27.20;56.30
63047;DHT22;62025;39.238;9.126;2022-08-19T04:04:26;27.10;56.00
63047;DHT22;62025;39.238;9.126;2022-08-19T04:06:52;27.10;56.30
63047;DHT22;62025;39.238;9.126;2022-08-19T04:09:19;27.10;56.10
63047;DHT22;62025;39.238;9.126;2022-08-19T04:11:49;27.10;56.10
63047;DHT22;62025;39.238;9.126;2022-08-19T04:14:22;27.10;56.10
63047;DHT22;62025;39.238;9.126;2022-08-19T04:16:51;27.10;55.90
63047;DHT22;62025;39.238;9.126;2022-08-19T04:19:18;27.10;55.90
63047;DHT22;62025;39.238;9.126;2022-08-19T04:21:47;27.00;55.90
63047;DHT22;62025;39.238;9.126;2022-08-19T04:24:14;27.00;56.10
63047;DHT22;62025;39.238;9.126;2022-08-19T04:26:41;27.00;56.30
63047;DHT22;62025;39.238;9.126;2022-08-19T04:29:10;27.00;56.30
63047;DHT22;62025;39.238;9.126;2022-08-19T04:31:40;27.00;56.60
63047;DHT22;62025;39.238;9.126;2022-08-19T04:34:09;27.00;56.40
63047;DHT22;62025;39.238;9.126;2022-08-19T04:36:38;26.90;56.40
63047;DHT22;62025;39.238;9.126;2022-08-19T04:39:15;26.90;56.70
63047;DHT22;62025;39.238;9.126;2022-08-19T04:41:42;26.90;56.60
63047;DHT22;62025;39.238;9.126;2022-08-19T04:44:27;26.90;56.30
63047;DHT22;62025;39.238;9.126;2022-08-19T04:46:56;26.90;56.30
63047;DHT22;62025;39.238;9.126;2022-08-19T04:49:23;26.90;56.00
63047;DHT22;62025;39.238;9.126;2022-08-19T04:51:51;27.00;55.70
63047;DHT22;62025;39.238;9.126;2022-08-19T04:54:21;26.90;55.90
63047;DHT22;62025;39.238;9.126;2022-08-19T04:56:49;26.70;56.60
63047;DHT22;62025;39.238;9.126;2022-08-19T04:59:17;26.70;56.90
63047;DHT22;62025;39.238;9.126;2022-08-19T05:01:44;26.60;57.10
63047;DHT22;62025;39.238;9.126;2022-08-19T05:04:17;26.60;57.30
63047;DHT22;62025;39.238;9.126;2022-08-19T05:06:46;26.60;57.20
63047;DHT22;62025;39.238;9.126;2022-08-19T05:09:14;26.70;57.00
63047;DHT22;62025;39.238;9.126;2022-08-19T05:11:41;26.80;56.80
63047;DHT22;62025;39.238;9.126;2022-08-19T05:14:09;26.70;56.70
63047;DHT22;62025;39.238;9.126;2022-08-19T05:16:36;26.60;56.90
63047;DHT22;62025;39.238;9.126;2022-08-19T05:19:02;26.70;56.70
63047;DHT22;62025;39.238;9.126;2022-08-19T05:21:47;26.70;56.80
63047;DHT22;62025;39.238;9.126;2022-08-19T05:24:32;26.50;57.00
63047;DHT22;62025;39.238;9.126;2022-08-19T05:27:01;26.60;57.00
63047;DHT22;62025;39.238;9.126;2022-08-19T05:29:30;26.70;56.80
63047;DHT22;62025;39.238;9.126;2022-08-19T05:31:57;26.70;56.70
63047;DHT22;62025;39.238;9.126;2022-08-19T05:34:25;26.70;56.90
63047;DHT22;62025;39.238;9.126;2022-08-19T05:36:55;26.70;56.90
63047;DHT22;62025;39.238;9.126;2022-08-19T05:39:26;26.80;56.50
63047;DHT22;62025;39.238;9.126;2022-08-19T05:41:57;26.80;56.70
63047;DHT22;62025;39.238;9.126;2022-08-19T05:44:28;26.80;56.70
63047;DHT22;62025;39.238;9.126;2022-08-19T05:47:02;26.90;56.40
63047;DHT22;62025;39.238;9.126;2022-08-19T05:49:32;27.00;56.40
63047;DHT22;62025;39.238;9.126;2022-08-19T05:52:00;27.00;56.20
63047;DHT22;62025;39.238;9.126;2022-08-19T05:54:30;27.20;56.10
63047;DHT22;62025;39.238;9.126;2022-08-19T05:56:56;27.30;55.90
63047;DHT22;62025;39.238;9.126;2022-08-19T05:59:23;27.40;55.60
63047;DHT22;62025;39.238;9.126;2022-08-19T06:01:51;27.50;55.50
63047;DHT22;62025;39.238;9.126;2022-08-19T06:04:19;27.60;55.40
63047;DHT22;62025;39.238;9.126;2022-08-19T06:06:46;27.70;55.10
63047;DHT22;62025;39.238;9.126;2022-08-19T06:09:13;27.70;55.20
63047;DHT22;62025;39.238;9.126;2022-08-19T06:11:43;27.90;54.80
63047;DHT22;62025;39.238;9.126;2022-08-19T06:14:22;27.90;54.50
63047;DHT22;62025;39.238;9.126;2022-08-19T06:16:49;28.10;54.30
63047;DHT22;62025;39.238;9.126;2022-08-19T06:19:20;28.20;54.10
63047;DHT22;62025;39.238;9.126;2022-08-19T06:21:49;28.30;54.20
63047;DHT22;62025;39.238;9.126;2022-08-19T06:24:22;28.40;54.20
63047;DHT22;62025;39.238;9.126;2022-08-19T06:26:50;28.40;54.30
63047;DHT22;62025;39.238;9.126;2022-08-19T06:29:20;28.40;54.20
63047;DHT22;62025;39.238;9.126;2022-08-19T06:31:49;28.50;54.30
63047;DHT22;62025;39.238;9.126;2022-08-19T06:34:18;28.60;54.00
63047;DHT22;62025;39.238;9.126;2022-08-19T06:36:49;28.70;54.10
63047;DHT22;62025;39.238;9.126;2022-08-19T06:39:29;28.80;53.90
63047;DHT22;62025;39.238;9.126;2022-08-19T06:41:59;28.90;53.80
63047;DHT22;62025;39.238;9.126;2022-08-19T06:44:30;28.90;53.50
63047;DHT22;62025;39.238;9.126;2022-08-19T06:47:04;29.10;53.50
63047;DHT22;62025;39.238;9.126;2022-08-19T06:49:32;29.10;53.10
63047;DHT22;62025;39.238;9.126;2022-08-19T06:52:00;29.20;53.10
63047;DHT22;62025;39.238;9.126;2022-08-19T06:54:28;29.30;53.00
63047;DHT22;62025;39.238;9.126;2022-08-19T06:57:01;29.20;52.50
63047;DHT22;62025;39.238;9.126;2022-08-19T06:59:28;29.10;52.20
63047;DHT22;62025;39.238;9.126;2022-08-19T07:02:00;29.20;51.90
63047;DHT22;62025;39.238;9.126;2022-08-19T07:04:31;29.40;52.00
63047;DHT22;62025;39.238;9.126;2022-08-19T07:07:08;29.40;51.90
63047;DHT22;62025;39.238;9.126;2022-08-19T07:09:39;29.50;51.40
63047;DHT22;62025;39.238;9.126;2022-08-19T07:12:08;29.60;51.10
63047;DHT22;62025;39.238;9.126;2022-08-19T07:14:36;29.70;50.70
63047;DHT22;62025;39.238;9.126;2022-08-19T07:17:06;29.80;50.30
63047;DHT22;62025;39.238;9.126;2022-08-19T07:19:35;29.80;50.20
63047;DHT22;62025;39.238;9.126;2022-08-19T07:22:03;30.00;49.80
63047;DHT22;62025;39.238;9.126;2022-08-19T07:24:31;30.10;49.40
63047;DHT22;62025;39.238;9.126;2022-08-19T07:27:03;30.00;49.20
63047;DHT22;62025;39.238;9.126;2022-08-19T07:29:33;30.00;49.00
63047;DHT22;62025;39.238;9.126;2022-08-19T07:32:01;30.30;48.80
63047;DHT22;62025;39.238;9.126;2022-08-19T07:34:29;30.30;48.80
63047;DHT22;62025;39.238;9.126;2022-08-19T07:36:56;30.40;48.50
63047;DHT22;62025;39.238;9.126;2022-08-19T07:39:26;30.50;48.40
63047;DHT22;62025;39.238;9.126;2022-08-19T07:41:55;30.50;48.00
63047;DHT22;62025;39.238;9.126;2022-08-19T07:44:23;30.50;48.10
63047;DHT22;62025;39.238;9.126;2022-08-19T07:46:52;30.60;48.20
63047;DHT22;62025;39.238;9.126;2022-08-19T07:49:21;30.70;47.90
63047;DHT22;62025;39.238;9.126;2022-08-19T07:52:01;30.80;47.60
63047;DHT22;62025;39.238;9.126;2022-08-19T07:54:32;30.80;47.30
63047;DHT22;62025;39.238;9.126;2022-08-19T07:57:00;30.70;47.50
63047;DHT22;62025;39.238;9.126;2022-08-19T07:59:27;30.80;47.70
63047;DHT22;62025;39.238;9.126;2022-08-19T08:01:54;30.80;47.10
63047;DHT22;62025;39.238;9.126;2022-08-19T08:04:22;31.00;46.50
63047;DHT22;62025;39.238;9.126;2022-08-19T08:07:07;30.90;46.30
63047;DHT22;62025;39.238;9.126;2022-08-19T08:09:52;31.00;46.60
63047;DHT22;62025;39.238;9.126;2022-08-19T08:12:25;31.00;46.80
63047;DHT22;62025;39.238;9.126;2022-08-19T08:14:57;31.10;46.40
63047;DHT22;62025;39.238;9.126;2022-08-19T08:17:28;31.10;46.30
63047;DHT22;62025;39.238;9.126;2022-08-19T08:19:56;30.90;46.20
63047;DHT22;62025;39.238;9.126;2022-08-19T08:22:23;31.10;45.70
63047;DHT22;62025;39.238;9.126;2022-08-19T08:25:12;31.70;44.80
63047;DHT22;62025;39.238;9.126;2022-08-19T08:27:45;31.40;45.10
63047;DHT22;62025;39.238;9.126;2022-08-19T08:30:16;31.00;45.90
63047;DHT22;62025;39.238;9.126;2022-08-19T08:32:43;31.00;46.00
63047;DHT22;62025;39.238;9.126;2022-08-19T08:35:13;31.10;45.10
63047;DHT22;62025;39.238;9.126;2022-08-19T08:37:43;31.10;44.00
63047;DHT22;62025;39.238;9.126;2022-08-19T08:42:56;31.30;43.60
63047;DHT22;62025;39.238;9.126;2022-08-19T08:45:28;31.40;43.60
63047;DHT22;62025;39.238;9.126;2022-08-19T08:47:57;31.40;43.20
63047;DHT22;62025;39.238;9.126;2022-08-19T08:50:33;31.50;42.80
63047;DHT22;62025;39.238;9.126;2022-08-19T08:53:03;31.40;42.60
63047;DHT22;62025;39.238;9.126;2022-08-19T08:55:31;31.50;42.70
63047;DHT22;62025;39.238;9.126;2022-08-19T08:58:02;31.90;42.60
63047;DHT22;62025;39.238;9.126;2022-08-19T09:00:39;32.00;43.20
63047;DHT22;62025;39.238;9.126;2022-08-19T09:03:14;32.00;42.90
63047;DHT22;62025;39.238;9.126;2022-08-19T09:12:00;32.40;41.90
63047;DHT22;62025;39.238;9.126;2022-08-19T09:14:58;32.70;42.00
63047;DHT22;62025;39.238;9.126;2022-08-19T09:17:29;32.40;42.30
63047;DHT22;62025;39.238;9.126;2022-08-19T09:22:35;31.90;42.90
63047;DHT22;62025;39.238;9.126;2022-08-19T09:25:03;31.80;43.50
63047;DHT22;62025;39.238;9.126;2022-08-19T09:27:30;31.60;43.80
63047;DHT22;62025;39.238;9.126;2022-08-19T09:29:57;31.60;44.00
63047;DHT22;62025;39.238;9.126;2022-08-19T09:32:24;31.80;43.00
63047;DHT22;62025;39.238;9.126;2022-08-19T09:34:51;31.70;42.90
63047;DHT22;62025;39.238;9.126;2022-08-19T09:37:21;31.70;41.90
63047;DHT22;62025;39.238;9.126;2022-08-19T09:39:47;31.80;41.60
63047;DHT22;62025;39.238;9.126;2022-08-19T09:42:14;31.70;41.30
63047;DHT22;62025;39.238;9.126;2022-08-19T09:44:43;32.10;40.50
63047;DHT22;62025;39.238;9.126;2022-08-19T09:47:11;32.20;40.60
63047;DHT22;62025;39.238;9.126;2022-08-19T09:49:39;32.40;40.30
63047;DHT22;62025;39.238;9.126;2022-08-19T09:52:09;32.80;39.50
63047;DHT22;62025;39.238;9.126;2022-08-19T09:54:37;32.80;39.60
63047;DHT22;62025;39.238;9.126;2022-08-19T09:57:04;32.50;39.70
63047;DHT22;62025;39.238;9.126;2022-08-19T09:59:30;33.00;39.00
63047;DHT22;62025;39.238;9.126;2022-08-19T10:01:56;32.60;39.70
63047;DHT22;62025;39.238;9.126;2022-08-19T10:04:23;32.40;38.90
63047;DHT22;62025;39.238;9.126;2022-08-19T10:07:09;32.40;38.60
63047;DHT22;62025;39.238;9.126;2022-08-19T10:09:35;32.50;38.40
63047;DHT22;62025;39.238;9.126;2022-08-19T10:12:03;32.70;38.40
63047;DHT22;62025;39.238;9.126;2022-08-19T10:14:31;33.00;38.40
63047;DHT22;62025;39.238;9.126;2022-08-19T10:16:57;32.80;38.70
63047;DHT22;62025;39.238;9.126;2022-08-19T10:19:25;32.70;38.90
63047;DHT22;62025;39.238;9.126;2022-08-19T10:21:54;32.50;39.40
63047;DHT22;62025;39.238;9.126;2022-08-19T10:24:20;32.50;39.20
63047;DHT22;62025;39.238;9.126;2022-08-19T10:26:49;32.40;38.60
63047;DHT22;62025;39.238;9.126;2022-08-19T10:29:15;32.20;38.70
63047;DHT22;62025;39.238;9.126;2022-08-19T10:31:42;32.30;38.00
63047;DHT22;62025;39.238;9.126;2022-08-19T10:34:08;32.20;38.10
63047;DHT22;62025;39.238;9.126;2022-08-19T10:36:36;32.20;38.50
63047;DHT22;62025;39.238;9.126;2022-08-19T10:39:08;32.00;38.40
63047;DHT22;62025;39.238;9.126;2022-08-19T10:41:37;32.00;38.60
63047;DHT22;62025;39.238;9.126;2022-08-19T10:44:07;32.00;38.80
63047;DHT22;62025;39.238;9.126;2022-08-19T10:46:40;31.90;39.40
63047;DHT22;62025;39.238;9.126;2022-08-19T10:49:09;31.70;39.70
63047;DHT22;62025;39.238;9.126;2022-08-19T10:51:38;31.60;39.50
63047;DHT22;62025;39.238;9.126;2022-08-19T10:54:23;31.60;39.80
63047;DHT22;62025;39.238;9.126;2022-08-19T10:57:10;31.70;39.70
63047;DHT22;62025;39.238;9.126;2022-08-19T10:59:36;31.60;39.60
63047;DHT22;62025;39.238;9.126;2022-08-19T11:02:08;31.50;39.70
63047;DHT22;62025;39.238;9.126;2022-08-19T11:04:36;31.50;40.00
63047;DHT22;62025;39.238;9.126;2022-08-19T11:07:04;31.50;39.80
63047;DHT22;62025;39.238;9.126;2022-08-19T11:09:36;31.50;40.10
63047;DHT22;62025;39.238;9.126;2022-08-19T11:12:04;31.60;40.30
63047;DHT22;62025;39.238;9.126;2022-08-19T11:14:31;31.50;40.50
63047;DHT22;62025;39.238;9.126;2022-08-19T11:16:58;31.50;41.30
63047;DHT22;62025;39.238;9.126;2022-08-19T11:19:25;31.40;41.70
63047;DHT22;62025;39.238;9.126;2022-08-19T11:21:52;31.40;41.20
63047;DHT22;62025;39.238;9.126;2022-08-19T11:24:20;31.40;40.90
63047;DHT22;62025;39.238;9.126;2022-08-19T11:26:49;31.30;41.00
63047;DHT22;62025;39.238;9.126;2022-08-19T11:29:19;31.20;41.40
63047;DHT22;62025;39.238;9.126;2022-08-19T11:31:48;31.30;41.00
63047;DHT22;62025;39.238;9.126;2022-08-19T11:34:24;31.30;40.80
63047;DHT22;62025;39.238;9.126;2022-08-19T11:36:53;31.20;40.80
63047;DHT22;62025;39.238;9.126;2022-08-19T11:39:25;31.20;40.60
63047;DHT22;62025;39.238;9.126;2022-08-19T11:41:52;31.20;40.50
63047;DHT22;62025;39.238;9.126;2022-08-19T11:44:18;31.10;40.70
63047;DHT22;62025;39.238;9.126;2022-08-19T11:46:45;31.10;41.10
63047;DHT22;62025;39.238;9.126;2022-08-19T11:49:13;31.10;41.60
63047;DHT22;62025;39.238;9.126;2022-08-19T11:51:41;31.00;42.30
63047;DHT22;62025;39.238;9.126;2022-08-19T11:54:12;31.00;43.00
63047;DHT22;62025;39.238;9.126;2022-08-19T11:56:39;31.00;43.00
63047;DHT22;62025;39.238;9.126;2022-08-19T11:59:06;31.00;42.20
63047;DHT22;62025;39.238;9.126;2022-08-19T12:01:33;31.00;42.00
63047;DHT22;62025;39.238;9.126;2022-08-19T12:04:00;31.00;42.00
63047;DHT22;62025;39.238;9.126;2022-08-19T12:06:29;31.00;41.90
63047;DHT22;62025;39.238;9.126;2022-08-19T12:08:59;31.00;41.40
63047;DHT22;62025;39.238;9.126;2022-08-19T12:11:27;31.00;41.60
63047;DHT22;62025;39.238;9.126;2022-08-19T12:13:53;30.90;42.10
63047;DHT22;62025;39.238;9.126;2022-08-19T12:16:24;30.90;42.60
63047;DHT22;62025;39.238;9.126;2022-08-19T12:18:53;30.90;42.90
63047;DHT22;62025;39.238;9.126;2022-08-19T12:21:22;30.90;43.20
63047;DHT22;62025;39.238;9.126;2022-08-19T12:23:55;30.90;44.10
63047;DHT22;62025;39.238;9.126;2022-08-19T12:26:23;30.90;43.90
63047;DHT22;62025;39.238;9.126;2022-08-19T12:28:50;30.80;43.00
63047;DHT22;62025;39.238;9.126;2022-08-19T12:31:17;30.80;42.70
63047;DHT22;62025;39.238;9.126;2022-08-19T12:33:45;30.80;41.80
63047;DHT22;62025;39.238;9.126;2022-08-19T12:36:13;30.70;42.30
63047;DHT22;62025;39.238;9.126;2022-08-19T12:38:57;30.80;42.80
63047;DHT22;62025;39.238;9.126;2022-08-19T12:41:35;30.90;43.10
63047;DHT22;62025;39.238;9.126;2022-08-19T12:44:02;30.90;43.20
63047;DHT22;62025;39.238;9.126;2022-08-19T12:46:28;30.90;43.10
63047;DHT22;62025;39.238;9.126;2022-08-19T12:48:54;30.90;43.20
63047;DHT22;62025;39.238;9.126;2022-08-19T12:51:22;30.90;42.90
63047;DHT22;62025;39.238;9.126;2022-08-19T12:53:48;30.90;42.40
63047;DHT22;62025;39.238;9.126;2022-08-19T12:56:15;30.90;41.90
63047;DHT22;62025;39.238;9.126;2022-08-19T12:58:43;30.70;41.10
63047;DHT22;62025;39.238;9.126;2022-08-19T13:01:11;30.70;41.30
63047;DHT22;62025;39.238;9.126;2022-08-19T13:03:39;30.60;41.60
63047;DHT22;62025;39.238;9.126;2022-08-19T13:06:06;30.60;41.40
63047;DHT22;62025;39.238;9.126;2022-08-19T13:08:36;30.70;41.50
63047;DHT22;62025;39.238;9.126;2022-08-19T13:11:09;30.70;41.70
63047;DHT22;62025;39.238;9.126;2022-08-19T13:13:41;30.70;41.50
63047;DHT22;62025;39.238;9.126;2022-08-19T13:16:09;30.60;41.70
63047;DHT22;62025;39.238;9.126;2022-08-19T13:18:37;30.60;41.40
63047;DHT22;62025;39.238;9.126;2022-08-19T13:21:05;30.50;40.90
63047;DHT22;62025;39.238;9.126;2022-08-19T13:23:34;30.50;40.90
63047;DHT22;62025;39.238;9.126;2022-08-19T13:26:06;30.50;41.10
63047;DHT22;62025;39.238;9.126;2022-08-19T13:28:34;30.60;41.30
63047;DHT22;62025;39.238;9.126;2022-08-19T13:31:21;30.60;41.00
63047;DHT22;62025;39.238;9.126;2022-08-19T13:34:07;30.60;41.00
63047;DHT22;62025;39.238;9.126;2022-08-19T13:36:35;30.60;41.10
63047;DHT22;62025;39.238;9.126;2022-08-19T13:39:04;30.60;40.80
63047;DHT22;62025;39.238;9.126;2022-08-19T13:41:30;30.50;40.90
63047;DHT22;62025;39.238;9.126;2022-08-19T13:43:59;30.60;40.50
63047;DHT22;62025;39.238;9.126;2022-08-19T13:46:25;30.50;41.10
63047;DHT22;62025;39.238;9.126;2022-08-19T13:48:52;30.50;41.40
63047;DHT22;62025;39.238;9.126;2022-08-19T13:51:19;30.40;41.20
63047;DHT22;62025;39.238;9.126;2022-08-19T13:53:45;30.50;41.40
63047;DHT22;62025;39.238;9.126;2022-08-19T13:56:13;30.50;41.70
63047;DHT22;62025;39.238;9.126;2022-08-19T13:58:41;30.50;42.10
63047;DHT22;62025;39.238;9.126;2022-08-19T14:01:09;30.50;42.00
63047;DHT22;62025;39.238;9.126;2022-08-19T14:03:36;30.40;42.00
63047;DHT22;62025;39.238;9.126;2022-08-19T14:06:03;30.40;42.20
63047;DHT22;62025;39.238;9.126;2022-08-19T14:08:29;30.40;42.30
63047;DHT22;62025;39.238;9.126;2022-08-19T14:10:58;30.30;42.80
63047;DHT22;62025;39.238;9.126;2022-08-19T14:13:24;30.40;42.90
63047;DHT22;62025;39.238;9.126;2022-08-19T14:15:53;30.40;42.70
63047;DHT22;62025;39.238;9.126;2022-08-19T14:18:20;30.40;42.60
63047;DHT22;62025;39.238;9.126;2022-08-19T14:20:46;30.30;42.70
63047;DHT22;62025;39.238;9.126;2022-08-19T14:23:12;30.20;42.50
63047;DHT22;62025;39.238;9.126;2022-08-19T14:25:39;30.20;43.20
63047;DHT22;62025;39.238;9.126;2022-08-19T14:28:05;30.30;43.10
63047;DHT22;62025;39.238;9.126;2022-08-19T14:30:34;30.40;42.90
63047;DHT22;62025;39.238;9.126;2022-08-19T14:33:04;30.30;42.80
63047;DHT22;62025;39.238;9.126;2022-08-19T14:35:32;30.20;42.60
63047;DHT22;62025;39.238;9.126;2022-08-19T14:38:03;30.20;43.40
63047;DHT22;62025;39.238;9.126;2022-08-19T14:40:31;30.20;43.20
63047;DHT22;62025;39.238;9.126;2022-08-19T14:43:00;30.30;43.70
63047;DHT22;62025;39.238;9.126;2022-08-19T14:45:32;30.20;44.30
63047;DHT22;62025;39.238;9.126;2022-08-19T14:48:01;30.30;44.40
63047;DHT22;62025;39.238;9.126;2022-08-19T14:50:28;30.20;44.30
63047;DHT22;62025;39.238;9.126;2022-08-19T14:53:02;30.20;44.40
63047;DHT22;62025;39.238;9.126;2022-08-19T14:55:32;30.30;44.30
63047;DHT22;62025;39.238;9.126;2022-08-19T14:57:59;30.30;44.00
63047;DHT22;62025;39.238;9.126;2022-08-19T15:00:26;30.20;43.80
63047;DHT22;62025;39.238;9.126;2022-08-19T15:02:52;30.20;43.80
63047;DHT22;62025;39.238;9.126;2022-08-19T15:05:20;30.20;43.70
63047;DHT22;62025;39.238;9.126;2022-08-19T15:07:46;30.10;43.90
63047;DHT22;62025;39.238;9.126;2022-08-19T15:10:14;30.00;44.00
63047;DHT22;62025;39.238;9.126;2022-08-19T15:12:41;30.00;43.90
63047;DHT22;62025;39.238;9.126;2022-08-19T15:15:10;30.00;44.10
63047;DHT22;62025;39.238;9.126;2022-08-19T15:17:45;30.00;43.50
63047;DHT22;62025;39.238;9.126;2022-08-19T15:20:14;30.00;43.50
63047;DHT22;62025;39.238;9.126;2022-08-19T15:22:42;30.00;43.80
63047;DHT22;62025;39.238;9.126;2022-08-19T15:25:10;29.90;44.00
63047;DHT22;62025;39.238;9.126;2022-08-19T15:27:38;30.00;43.60
63047;DHT22;62025;39.238;9.126;2022-08-19T15:30:06;29.90;43.90
63047;DHT22;62025;39.238;9.126;2022-08-19T15:32:34;29.90;44.00
63047;DHT22;62025;39.238;9.126;2022-08-19T15:35:02;29.90;44.20
63047;DHT22;62025;39.238;9.126;2022-08-19T15:37:29;29.80;44.20
63047;DHT22;62025;39.238;9.126;2022-08-19T15:39:56;29.80;44.10
63047;DHT22;62025;39.238;9.126;2022-08-19T15:42:22;29.80;44.30
63047;DHT22;62025;39.238;9.126;2022-08-19T15:44:48;29.80;44.60
63047;DHT22;62025;39.238;9.126;2022-08-19T15:47:16;29.70;45.20
63047;DHT22;62025;39.238;9.126;2022-08-19T15:49:44;29.70;45.30
63047;DHT22;62025;39.238;9.126;2022-08-19T15:52:10;29.70;45.50
63047;DHT22;62025;39.238;9.126;2022-08-19T15:54:37;29.70;45.50